createdAt,value
2018-12-17T00:02:26.711Z,44.33
2018-12-17T00:05:32.229Z,46.73
2018-12-17T00:08:36.808Z,54.03
2018-12-17T00:11:41.496Z,50.73
2018-12-17T00:14:46.445Z,42.10
2018-12-17T00:17:50.659Z,51.97
2018-12-17T00:20:55.050Z,44.50
2018-12-17T00:23:59.348Z,48.60
2018-12-17T00:27:03.481Z,47.40
2018-12-17T00:30:09.204Z,39.40
2018-12-17T00:33:13.560Z,41.73
2018-12-17T00:36:17.846Z,39.37
2018-12-17T00:39:22.022Z,36.43
2018-12-17T00:42:26.168Z,45.27
2018-12-17T00:45:30.465Z,42.43
2018-12-17T00:48:35.193Z,43.53
2018-12-17T00:51:39.678Z,39.40
2018-12-17T00:54:43.918Z,43.07
2018-12-17T00:57:48.143Z,44.67
2018-12-17T01:00:52.622Z,41.20
2018-12-17T01:03:56.904Z,36.67
2018-12-17T01:07:01.398Z,36.47
2018-12-17T01:10:07.921Z,41.10
2018-12-17T01:13:12.502Z,34.27
2018-12-17T01:16:16.737Z,37.77
2018-12-17T01:19:20.882Z,38.47
2018-12-17T01:22:25.133Z,45.93
2018-12-17T01:25:29.343Z,30.63
2018-12-17T01:28:33.969Z,36.97
2018-12-17T01:31:37.879Z,37.60
2018-12-17T01:34:41.706Z,38.50
2018-12-17T01:37:45.588Z,37.03
2018-12-17T01:40:50.086Z,43.07
2018-12-17T01:43:54.419Z,36.63
2018-12-17T01:46:58.865Z,37.20
2018-12-17T01:50:03.809Z,41.20
2018-12-17T01:53:08.164Z,40.03
2018-12-17T01:56:12.519Z,36.67
2018-12-17T01:59:19.822Z,38.10
2018-12-17T02:02:24.208Z,37.37
2018-12-17T02:05:28.374Z,37.30
2018-12-17T02:08:33.004Z,37.50
2018-12-17T02:11:37.500Z,38.60
2018-12-17T02:14:42.087Z,38.07
2018-12-17T02:17:46.600Z,35.17
2018-12-17T02:20:51.239Z,34.27
2018-12-17T02:23:55.571Z,34.97
2018-12-17T02:26:59.945Z,37.63
2018-12-17T02:30:04.445Z,42.60
2018-12-17T02:33:08.842Z,31.93
2018-12-17T02:36:12.992Z,41.70
2018-12-17T02:39:17.320Z,36.17
2018-12-17T02:42:21.555Z,38.67
2018-12-17T02:45:26.855Z,30.90
2018-12-17T02:48:31.123Z,28.53
2018-12-17T02:51:37.815Z,31.87
2018-12-17T02:54:42.608Z,40.30
2018-12-17T02:57:46.875Z,37.90
2018-12-17T03:00:51.308Z,32.00
2018-12-17T03:03:55.612Z,34.93
2018-12-17T03:06:59.974Z,33.00
2018-12-17T03:10:04.618Z,33.97
2018-12-17T03:13:09.009Z,30.50
2018-12-17T03:16:13.427Z,34.93
2018-12-17T03:19:17.898Z,34.23
2018-12-17T03:22:22.177Z,34.13
2018-12-17T03:25:26.388Z,31.10
2018-12-17T03:28:30.574Z,29.63
2018-12-17T03:31:34.936Z,33.53
2018-12-17T03:34:39.239Z,32.63
2018-12-17T03:37:43.766Z,37.90
2018-12-17T03:40:48.211Z,37.43
2018-12-17T03:43:52.823Z,28.87
2018-12-17T03:46:57.047Z,32.30
2018-12-17T03:50:01.549Z,31.77
2018-12-17T03:53:05.704Z,36.80
2018-12-17T03:56:10.154Z,30.53
2018-12-17T03:59:14.512Z,33.30
2018-12-17T04:02:18.862Z,34.10
2018-12-17T04:05:23.348Z,33.43
2018-12-17T04:08:27.679Z,31.13
2018-12-17T04:11:31.975Z,32.60
2018-12-17T04:14:36.019Z,29.20
2018-12-17T04:17:40.504Z,31.57
2018-12-17T04:20:44.588Z,36.50
2018-12-17T04:23:48.917Z,33.17
2018-12-17T04:26:53.093Z,36.03
2018-12-17T04:29:57.246Z,30.80
2018-12-17T04:33:01.690Z,28.13
2018-12-17T04:36:05.981Z,32.67
2018-12-17T04:39:10.242Z,30.73
2018-12-17T04:42:14.408Z,30.20
2018-12-17T04:45:18.645Z,31.57
2018-12-17T04:48:23.052Z,29.83
2018-12-17T04:51:27.571Z,30.43
2018-12-17T04:54:31.883Z,32.03
2018-12-17T04:57:36.753Z,30.97
2018-12-17T05:00:41.062Z,28.77
2018-12-17T05:03:45.982Z,34.03
2018-12-17T05:06:50.264Z,33.07
2018-12-17T05:09:54.585Z,31.73
2018-12-17T05:12:59.012Z,33.83
2018-12-17T05:16:03.612Z,33.63
2018-12-17T05:19:08.045Z,31.93
2018-12-17T05:22:12.537Z,29.83
2018-12-17T05:25:16.773Z,27.80
2018-12-17T05:28:21.329Z,34.07
2018-12-17T05:31:25.786Z,32.80
2018-12-17T05:34:30.172Z,37.33
2018-12-17T05:37:34.623Z,31.70
2018-12-17T05:40:38.975Z,34.63
2018-12-17T05:43:43.112Z,30.47
2018-12-17T05:46:47.507Z,36.30
2018-12-17T05:49:51.688Z,27.90
2018-12-17T05:52:56.208Z,32.27
2018-12-17T05:56:00.638Z,31.90
2018-12-17T05:59:05.028Z,37.90
2018-12-17T06:02:09.540Z,38.10
2018-12-17T06:05:13.729Z,34.17
2018-12-17T06:08:18.065Z,38.93
2018-12-17T06:11:22.372Z,33.90
2018-12-17T06:14:26.416Z,34.40
2018-12-17T06:17:30.712Z,34.70
2018-12-17T06:20:34.900Z,30.77
2018-12-17T06:23:39.332Z,35.67
2018-12-17T06:26:43.561Z,35.13
2018-12-17T06:29:47.828Z,32.97
2018-12-17T06:32:53.169Z,34.63
2018-12-17T06:35:57.508Z,40.13
2018-12-17T06:39:01.816Z,33.50
2018-12-17T06:42:06.409Z,43.50
2018-12-17T06:45:10.838Z,34.80
2018-12-17T06:48:17.303Z,38.20
2018-12-17T06:51:23.236Z,31.30
2018-12-17T06:54:28.026Z,29.93
2018-12-17T06:57:32.556Z,42.63
2018-12-17T07:00:36.723Z,29.60
2018-12-17T07:03:41.577Z,34.60
2018-12-17T07:06:45.815Z,29.20
2018-12-17T07:09:50.147Z,29.90
2018-12-17T07:12:54.226Z,22.83
2018-12-17T07:15:58.691Z,30.13
2018-12-17T07:19:03.069Z,25.17
2018-12-17T07:22:07.380Z,30.30
2018-12-17T07:25:11.712Z,30.20
2018-12-17T07:28:16.125Z,31.80
2018-12-17T07:31:20.390Z,30.20
2018-12-17T07:34:25.092Z,24.23
2018-12-17T07:37:29.619Z,33.33
2018-12-17T07:40:33.919Z,28.10
2018-12-17T07:43:38.860Z,24.03
2018-12-17T07:46:43.110Z,25.47
2018-12-17T07:49:47.526Z,25.87
2018-12-17T07:52:52.197Z,26.40
2018-12-17T07:55:56.693Z,33.37
2018-12-17T07:59:01.229Z,47.57
2018-12-17T08:02:05.910Z,38.93
2018-12-17T08:05:10.164Z,47.30
2018-12-17T08:08:14.513Z,45.83
2018-12-17T08:11:18.830Z,44.20
2018-12-17T08:14:23.058Z,36.70
2018-12-17T08:17:27.535Z,43.80
2018-12-17T08:20:31.753Z,44.80
2018-12-17T08:23:36.173Z,47.27
2018-12-17T08:26:42.331Z,53.30
2018-12-17T08:29:46.756Z,46.27
2018-12-17T08:32:51.072Z,43.70
2018-12-17T08:35:55.359Z,39.47
2018-12-17T08:38:59.644Z,43.67
2018-12-17T08:42:03.828Z,44.60
2018-12-17T08:45:08.436Z,43.17
2018-12-17T08:48:12.760Z,43.40
2018-12-17T08:51:16.835Z,44.83
2018-12-17T08:54:21.096Z,38.27
2018-12-17T08:57:25.540Z,42.53
2018-12-17T09:00:29.848Z,44.90
2018-12-17T09:03:34.236Z,43.90
2018-12-17T09:06:38.468Z,46.03
2018-12-17T09:09:42.880Z,47.17
2018-12-17T09:12:47.334Z,54.20
2018-12-17T09:15:51.743Z,43.27
2018-12-17T09:18:56.133Z,44.63
2018-12-17T09:22:00.479Z,47.90
2018-12-17T09:25:05.500Z,42.57
2018-12-17T09:28:09.817Z,50.67
2018-12-17T09:31:14.035Z,52.90
2018-12-17T09:34:18.190Z,58.43
2018-12-17T09:37:22.526Z,52.03
2018-12-17T09:40:26.947Z,45.40
2018-12-17T09:43:31.262Z,50.07
2018-12-17T09:46:35.829Z,43.70
2018-12-17T09:49:40.086Z,47.50
2018-12-17T09:52:44.504Z,47.27
2018-12-17T09:55:48.858Z,41.00
2018-12-17T09:58:53.187Z,36.83
2018-12-17T10:01:57.458Z,40.77
2018-12-17T10:05:01.857Z,39.97
2018-12-17T10:08:06.258Z,45.83
2018-12-17T10:11:10.773Z,47.40
2018-12-17T10:14:14.952Z,43.00
2018-12-17T10:17:19.508Z,34.77
2018-12-17T10:20:23.617Z,41.80
2018-12-17T10:23:27.832Z,38.63
2018-12-17T10:26:32.075Z,34.47
2018-12-17T10:29:36.384Z,38.97
2018-12-17T10:32:40.726Z,40.17
2018-12-17T10:35:44.920Z,36.37
2018-12-17T10:38:49.382Z,40.47
2018-12-17T10:41:54.647Z,40.50
2018-12-17T10:44:58.975Z,39.30
2018-12-17T10:48:03.323Z,43.33
2018-12-17T10:51:07.713Z,37.43
2018-12-17T10:54:12.149Z,34.40
2018-12-17T10:57:16.551Z,43.50
2018-12-17T11:00:26.093Z,36.60
2018-12-17T11:03:39.176Z,35.00
2018-12-17T11:06:43.569Z,33.50
2018-12-17T11:09:47.894Z,39.27
2018-12-17T11:12:52.252Z,36.30
2018-12-17T11:15:57.851Z,33.17
2018-12-17T11:19:03.008Z,36.53
2018-12-17T11:22:07.400Z,42.00
2018-12-17T11:25:11.809Z,33.10
2018-12-17T11:28:16.101Z,39.03
2018-12-17T11:31:20.610Z,35.07
2018-12-17T11:34:24.906Z,54.37
2018-12-17T11:37:29.500Z,44.63
2018-12-17T11:40:33.975Z,38.77
2018-12-17T11:43:43.748Z,35.03
2018-12-17T11:46:44.837Z,40.07
2018-12-17T11:49:49.165Z,45.50
2018-12-17T11:52:53.347Z,30.03
2018-12-17T11:55:57.674Z,39.70
2018-12-17T11:59:02.130Z,21.87
2018-12-17T12:02:06.392Z,22.00
2018-12-17T12:05:10.784Z,20.67
2018-12-17T12:08:14.989Z,26.80
2018-12-17T12:11:19.622Z,24.83
2018-12-17T12:14:23.814Z,18.13
2018-12-17T12:17:28.288Z,19.27
2018-12-17T12:20:32.520Z,22.63
2018-12-17T12:23:37.136Z,22.37
2018-12-17T12:26:41.429Z,34.67
2018-12-17T12:29:45.846Z,42.70
2018-12-17T12:32:50.304Z,44.40
2018-12-17T12:35:55.332Z,48.23
2018-12-17T12:38:59.619Z,46.27
2018-12-17T12:42:04.484Z,48.27
2018-12-17T12:45:08.811Z,46.17
2018-12-17T12:48:13.173Z,56.20
2018-12-17T12:51:17.531Z,41.33
2018-12-17T12:54:22.276Z,37.73
2018-12-17T12:57:26.656Z,35.23
2018-12-17T13:00:31.010Z,41.87
2018-12-17T13:03:35.455Z,37.00
2018-12-17T13:06:40.009Z,40.90
2018-12-17T13:09:45.428Z,41.90
2018-12-17T13:12:49.683Z,32.87
2018-12-17T13:15:53.955Z,36.40
2018-12-17T13:18:58.438Z,40.93
2018-12-17T13:22:02.693Z,30.80
2018-12-17T13:25:10.024Z,35.97
2018-12-17T13:28:14.283Z,38.80
2018-12-17T13:31:18.516Z,31.03
2018-12-17T13:34:22.780Z,38.20
2018-12-17T13:37:27.112Z,36.43
2018-12-17T13:40:31.524Z,38.13
2018-12-17T13:43:35.714Z,31.47
2018-12-17T13:46:40.357Z,40.28
2018-12-17T13:49:44.895Z,37.67
2018-12-17T13:52:49.262Z,36.73
2018-12-17T13:55:53.594Z,33.80
2018-12-17T13:58:57.921Z,36.90
2018-12-17T14:02:02.179Z,35.13
2018-12-17T14:05:06.581Z,37.87
2018-12-17T14:08:10.813Z,35.63
2018-12-17T14:11:15.713Z,38.50
2018-12-17T14:14:19.984Z,33.47
2018-12-17T14:17:29.280Z,29.83
2018-12-17T14:20:38.780Z,36.40
2018-12-17T14:23:43.075Z,50.27
2018-12-17T14:26:47.475Z,35.50
2018-12-17T14:29:51.638Z,46.93
2018-12-17T14:32:56.987Z,40.28
2018-12-17T14:36:06.418Z,33.37
2018-12-17T14:39:10.941Z,44.70
2018-12-17T14:42:15.406Z,42.30
2018-12-17T14:45:19.528Z,40.90
2018-12-17T14:48:23.684Z,40.73
2018-12-17T14:51:28.068Z,42.73
2018-12-17T14:54:32.348Z,49.30
2018-12-17T14:57:36.917Z,52.93
2018-12-17T15:00:41.197Z,45.00
2018-12-17T15:03:45.709Z,51.90
2018-12-17T15:06:50.144Z,48.03
2018-12-17T15:09:54.743Z,51.83
2018-12-17T15:12:58.939Z,47.30
2018-12-17T15:16:03.423Z,34.80
2018-12-17T15:19:07.884Z,49.23
2018-12-17T15:22:12.163Z,45.47
2018-12-17T15:25:16.563Z,42.20
2018-12-17T15:28:20.996Z,49.73
2018-12-17T15:31:25.124Z,44.90
2018-12-17T15:34:29.375Z,55.20
2018-12-17T15:37:33.669Z,50.80
2018-12-17T15:40:38.012Z,50.30
2018-12-17T15:43:42.336Z,47.83
2018-12-17T15:46:46.788Z,43.83
2018-12-17T15:49:51.130Z,46.03
2018-12-17T15:52:55.401Z,37.47
2018-12-17T15:55:59.602Z,49.03
2018-12-17T15:59:04.093Z,41.60
2018-12-17T16:02:08.141Z,45.17
2018-12-17T16:05:12.615Z,36.30
2018-12-17T16:08:17.336Z,41.93
2018-12-17T16:11:21.860Z,48.40
2018-12-17T16:14:26.135Z,46.93
2018-12-17T16:17:30.436Z,47.87
2018-12-17T16:20:34.745Z,43.57
2018-12-17T16:23:39.105Z,52.00
2018-12-17T16:26:42.977Z,47.67
2018-12-17T16:29:47.240Z,49.13
2018-12-17T16:32:51.673Z,50.83
2018-12-17T16:35:55.693Z,44.37
2018-12-17T16:39:00.079Z,48.37
2018-12-17T16:42:04.362Z,51.10
2018-12-17T16:45:09.860Z,47.60
2018-12-17T16:48:14.145Z,45.03
2018-12-17T16:51:18.539Z,46.90
2018-12-17T16:54:23.016Z,56.30
2018-12-17T16:57:27.350Z,52.50
2018-12-17T17:00:31.569Z,50.53
2018-12-17T17:03:35.950Z,52.57
2018-12-17T17:06:40.388Z,53.30
2018-12-17T17:09:44.585Z,51.53
2018-12-17T17:12:49.677Z,46.67
2018-12-17T17:15:54.079Z,49.30
2018-12-17T17:18:58.604Z,54.97
2018-12-17T17:22:02.960Z,51.47
2018-12-17T17:25:07.716Z,52.30
2018-12-17T17:28:11.985Z,59.00
2018-12-17T17:31:16.756Z,51.93
2018-12-17T17:34:21.151Z,48.20
2018-12-17T17:37:25.416Z,45.70
2018-12-17T17:40:29.867Z,48.53
2018-12-17T17:43:34.367Z,60.33
2018-12-17T17:46:38.825Z,59.03
2018-12-17T17:49:43.284Z,55.00
2018-12-17T17:52:47.664Z,50.90
2018-12-17T17:55:52.180Z,47.10
2018-12-17T17:58:56.730Z,50.90
2018-12-17T18:02:00.942Z,46.60
2018-12-17T18:05:05.891Z,53.63
2018-12-17T18:08:10.386Z,52.87
2018-12-17T18:11:14.922Z,53.90
2018-12-17T18:14:19.433Z,42.20
2018-12-17T18:17:23.947Z,46.20
2018-12-17T18:20:28.137Z,47.70
2018-12-17T18:23:32.664Z,45.10
2018-12-17T18:26:37.185Z,49.27
2018-12-17T18:29:41.575Z,48.27
2018-12-17T18:32:45.958Z,51.50
2018-12-17T18:35:50.390Z,49.70
2018-12-17T18:38:54.791Z,44.63
2018-12-17T18:41:59.890Z,45.63
2018-12-17T18:45:04.451Z,36.83
2018-12-17T18:48:08.958Z,48.20
2018-12-17T18:51:14.079Z,47.13
2018-12-17T18:54:18.520Z,37.37
2018-12-17T18:57:22.924Z,48.93
2018-12-17T19:00:27.071Z,38.43
2018-12-17T19:03:32.547Z,47.73
2018-12-17T19:06:37.022Z,40.93
2018-12-17T19:09:42.951Z,41.47
2018-12-17T19:12:47.343Z,39.77
2018-12-17T19:15:51.682Z,36.53
2018-12-17T19:18:56.246Z,53.93
2018-12-17T19:22:00.507Z,37.83
2018-12-17T19:25:05.476Z,40.63
2018-12-17T19:28:09.993Z,38.67
2018-12-17T19:31:14.880Z,37.93
2018-12-17T19:34:19.380Z,38.03
2018-12-17T19:37:23.978Z,36.90
2018-12-17T19:40:28.331Z,40.50
2018-12-17T19:43:32.958Z,36.07
2018-12-17T19:46:37.083Z,33.00
2018-12-17T19:49:41.872Z,37.37
2018-12-17T19:52:46.171Z,39.30
2018-12-17T19:55:50.690Z,37.20
2018-12-17T19:58:55.165Z,40.67
2018-12-17T20:01:59.731Z,40.97
2018-12-17T20:05:04.308Z,38.67
2018-12-17T20:08:08.830Z,43.97
2018-12-17T20:11:13.188Z,43.63
2018-12-17T20:14:17.451Z,38.57
2018-12-17T20:17:21.977Z,38.53
2018-12-17T20:20:26.398Z,36.83
2018-12-17T20:23:30.660Z,34.50
2018-12-17T20:26:35.642Z,38.50
2018-12-17T20:29:40.120Z,36.67
2018-12-17T20:32:44.540Z,36.10
2018-12-17T20:35:48.840Z,38.47
2018-12-17T20:38:53.395Z,35.53
2018-12-17T20:41:57.908Z,38.07
2018-12-17T20:45:02.696Z,42.47
2018-12-17T20:48:07.220Z,39.20
2018-12-17T20:51:11.817Z,46.07
2018-12-17T20:54:16.312Z,39.43
2018-12-17T20:57:20.692Z,40.87
2018-12-17T21:00:24.989Z,44.93
2018-12-17T21:03:29.664Z,37.23
2018-12-17T21:06:34.252Z,40.10
2018-12-17T21:09:38.681Z,39.10
2018-12-17T21:12:43.131Z,44.57
2018-12-17T21:15:47.562Z,39.77
2018-12-17T21:18:51.765Z,38.50
2018-12-17T21:21:56.184Z,30.97
2018-12-17T21:25:00.411Z,31.87
2018-12-17T21:28:04.792Z,40.03
2018-12-17T21:31:09.171Z,34.80
2018-12-17T21:34:13.414Z,34.10
2018-12-17T21:37:17.752Z,31.30
2018-12-17T21:40:22.371Z,31.63
2018-12-17T21:43:26.874Z,38.10
2018-12-17T21:46:31.319Z,41.63
2018-12-17T21:49:35.733Z,33.30
2018-12-17T21:52:40.129Z,31.80
2018-12-17T21:55:45.133Z,36.70
2018-12-17T21:58:49.504Z,33.57
2018-12-17T22:01:53.912Z,36.07
2018-12-17T22:04:58.296Z,34.97
2018-12-17T22:08:02.627Z,38.40
2018-12-17T22:11:06.852Z,36.87
2018-12-17T22:14:11.370Z,35.83
2018-12-17T22:17:16.864Z,40.73
2018-12-17T22:20:21.056Z,40.23
2018-12-17T22:23:25.582Z,34.53
2018-12-17T22:26:30.054Z,37.33
2018-12-17T22:29:34.559Z,39.03
2018-12-17T22:32:39.081Z,39.57
2018-12-17T22:35:43.397Z,35.13
2018-12-17T22:38:47.611Z,35.37
2018-12-17T22:41:51.829Z,35.67
2018-12-17T22:44:56.101Z,39.03
2018-12-17T22:48:01.355Z,42.00
2018-12-17T22:51:05.550Z,31.00
2018-12-17T22:54:09.966Z,31.30
2018-12-17T22:57:14.419Z,38.17
2018-12-17T23:00:18.827Z,34.77
2018-12-17T23:03:26.265Z,36.57
2018-12-17T23:06:29.932Z,31.63
2018-12-17T23:09:44.897Z,38.53
2018-12-17T23:13:00.036Z,36.17
2018-12-17T23:16:15.244Z,37.70
2018-12-17T23:19:18.241Z,35.67
2018-12-17T23:22:22.391Z,37.73
2018-12-17T23:25:26.669Z,38.20
2018-12-17T23:28:31.012Z,36.60
2018-12-17T23:31:35.482Z,35.87
2018-12-17T23:34:40.858Z,39.67
2018-12-17T23:37:45.128Z,32.40
2018-12-17T23:40:49.706Z,32.90
2018-12-17T23:43:54.015Z,36.97
2018-12-17T23:46:58.419Z,45.60
2018-12-17T23:50:03.021Z,36.47
2018-12-17T23:53:07.271Z,33.57
2018-12-17T23:56:12.810Z,36.40
2018-12-17T23:59:17.214Z,39.60
